sensor_id;sensor_type;location;lat;lon;timestamp;P1;durP1;ratioP1;P2;durP2;ratioP2
19519;SDS011;9904;52.246;20.898;2023-04-28T00:01:12;31.20;;;12.10;;
19519;SDS011;9904;52.246;20.898;2023-04-28T00:03:39;24.47;;;11.30;;
19519;SDS011;9904;52.246;20.898;2023-04-28T00:06:06;34.87;;;12.87;;
19519;SDS011;9904;52.246;20.898;2023-04-28T00:08:33;32.07;;;12.60;;
19519;SDS011;9904;52.246;20.898;2023-04-28T00:10:59;28.27;;;12.17;;
19519;SDS011;9904;52.246;20.898;2023-04-28T00:13:26;28.03;;;10.77;;
19519;SDS011;9904;52.246;20.898;2023-04-28T00:15:52;29.17;;;10.97;;
19519;SDS011;9904;52.246;20.898;2023-04-28T00:18:20;27.27;;;12.00;;
19519;SDS011;9904;52.246;20.898;2023-04-28T00:20:47;30.20;;;11.63;;
19519;SDS011;9904;52.246;20.898;2023-04-28T00:23:14;26.17;;;10.57;;
19519;SDS011;9904;52.246;20.898;2023-04-28T00:25:42;26.23;;;11.00;;
19519;SDS011;9904;52.246;20.898;2023-04-28T00:28:08;27.37;;;11.80;;
19519;SDS011;9904;52.246;20.898;2023-04-28T00:30:35;32.50;;;10.93;;
19519;SDS011;9904;52.246;20.898;2023-04-28T00:33:01;27.50;;;11.93;;
19519;SDS011;9904;52.246;20.898;2023-04-28T00:35:28;31.47;;;11.67;;
19519;SDS011;9904;52.246;20.898;2023-04-28T00:37:54;28.70;;;12.07;;
19519;SDS011;9904;52.246;20.898;2023-04-28T00:40:21;31.57;;;11.30;;
19519;SDS011;9904;52.246;20.898;2023-04-28T00:42:47;30.00;;;11.87;;
19519;SDS011;9904;52.246;20.898;2023-04-28T00:45:14;38.47;;;12.83;;
19519;SDS011;9904;52.246;20.898;2023-04-28T00:47:40;31.40;;;13.57;;
19519;SDS011;9904;52.246;20.898;2023-04-28T00:50:07;28.50;;;12.93;;
19519;SDS011;9904;52.246;20.898;2023-04-28T00:52:35;32.17;;;12.70;;
19519;SDS011;9904;52.246;20.898;2023-04-28T00:55:04;32.47;;;12.97;;
19519;SDS011;9904;52.246;20.898;2023-04-28T00:57:30;32.97;;;12.43;;
19519;SDS011;9904;52.246;20.898;2023-04-28T00:59:57;35.37;;;13.27;;
19519;SDS011;9904;52.246;20.898;2023-04-28T01:02:23;31.80;;;13.03;;
19519;SDS011;9904;52.246;20.898;2023-04-28T01:04:51;41.20;;;13.40;;
19519;SDS011;9904;52.246;20.898;2023-04-28T01:07:17;37.13;;;14.40;;
19519;SDS011;9904;52.246;20.898;2023-04-28T01:09:44;38.30;;;14.70;;
19519;SDS011;9904;52.246;20.898;2023-04-28T01:12:12;29.80;;;13.33;;
19519;SDS011;9904;52.246;20.898;2023-04-28T01:14:39;32.30;;;13.27;;
19519;SDS011;9904;52.246;20.898;2023-04-28T01:17:06;34.00;;;14.87;;
19519;SDS011;9904;52.246;20.898;2023-04-28T01:19:33;37.67;;;14.80;;
19519;SDS011;9904;52.246;20.898;2023-04-28T01:21:59;41.20;;;14.73;;
19519;SDS011;9904;52.246;20.898;2023-04-28T01:24:26;39.13;;;15.53;;
19519;SDS011;9904;52.246;20.898;2023-04-28T01:26:52;36.73;;;15.00;;
19519;SDS011;9904;52.246;20.898;2023-04-28T01:29:19;34.63;;;13.87;;
19519;SDS011;9904;52.246;20.898;2023-04-28T01:31:45;44.90;;;15.57;;
19519;SDS011;9904;52.246;20.898;2023-04-28T01:34:12;34.37;;;14.13;;
19519;SDS011;9904;52.246;20.898;2023-04-28T01:36:39;38.43;;;14.97;;
19519;SDS011;9904;52.246;20.898;2023-04-28T01:39:05;34.30;;;13.97;;
19519;SDS011;9904;52.246;20.898;2023-04-28T01:41:32;39.77;;;15.37;;
19519;SDS011;9904;52.246;20.898;2023-04-28T01:43:59;34.07;;;13.73;;
19519;SDS011;9904;52.246;20.898;2023-04-28T01:46:26;36.50;;;14.90;;
19519;SDS011;9904;52.246;20.898;2023-04-28T01:48:52;37.27;;;14.87;;
19519;SDS011;9904;52.246;20.898;2023-04-28T01:51:19;39.73;;;15.30;;
19519;SDS011;9904;52.246;20.898;2023-04-28T01:53:45;36.97;;;15.13;;
19519;SDS011;9904;52.246;20.898;2023-04-28T01:56:12;37.20;;;14.67;;
19519;SDS011;9904;52.246;20.898;2023-04-28T01:58:38;32.27;;;14.23;;
19519;SDS011;9904;52.246;20.898;2023-04-28T02:01:05;33.07;;;14.13;;
19519;SDS011;9904;52.246;20.898;2023-04-28T02:03:32;39.90;;;15.07;;
19519;SDS011;9904;52.246;20.898;2023-04-28T02:05:59;45.37;;;16.47;;
19519;SDS011;9904;52.246;20.898;2023-04-28T02:08:25;39.47;;;15.23;;
19519;SDS011;9904;52.246;20.898;2023-04-28T02:10:51;36.77;;;15.60;;
19519;SDS011;9904;52.246;20.898;2023-04-28T02:13:18;38.83;;;14.60;;
19519;SDS011;9904;52.246;20.898;2023-04-28T02:15:44;36.53;;;14.40;;
19519;SDS011;9904;52.246;20.898;2023-04-28T02:18:11;36.43;;;15.70;;
19519;SDS011;9904;52.246;20.898;2023-04-28T02:20:38;38.87;;;15.53;;
19519;SDS011;9904;52.246;20.898;2023-04-28T02:23:04;42.43;;;16.00;;
19519;SDS011;9904;52.246;20.898;2023-04-28T02:25:31;38.30;;;16.00;;
19519;SDS011;9904;52.246;20.898;2023-04-28T02:27:57;35.47;;;14.93;;
19519;SDS011;9904;52.246;20.898;2023-04-28T02:30:24;42.07;;;15.53;;
19519;SDS011;9904;52.246;20.898;2023-04-28T02:32:51;41.97;;;16.87;;
19519;SDS011;9904;52.246;20.898;2023-04-28T02:35:17;36.93;;;15.77;;
19519;SDS011;9904;52.246;20.898;2023-04-28T02:37:44;40.60;;;16.33;;
19519;SDS011;9904;52.246;20.898;2023-04-28T02:40:11;45.83;;;15.87;;
19519;SDS011;9904;52.246;20.898;2023-04-28T02:42:38;36.57;;;15.30;;
19519;SDS011;9904;52.246;20.898;2023-04-28T02:45:04;36.40;;;15.50;;
19519;SDS011;9904;52.246;20.898;2023-04-28T02:47:31;34.80;;;14.47;;
19519;SDS011;9904;52.246;20.898;2023-04-28T02:49:58;39.73;;;14.87;;
19519;SDS011;9904;52.246;20.898;2023-04-28T02:52:25;42.83;;;15.77;;
19519;SDS011;9904;52.246;20.898;2023-04-28T02:54:51;38.03;;;15.07;;
19519;SDS011;9904;52.246;20.898;2023-04-28T02:57:22;40.23;;;16.50;;
19519;SDS011;9904;52.246;20.898;2023-04-28T02:59:49;38.77;;;15.60;;
19519;SDS011;9904;52.246;20.898;2023-04-28T03:02:15;34.47;;;15.87;;
19519;SDS011;9904;52.246;20.898;2023-04-28T03:04:42;37.33;;;15.00;;
19519;SDS011;9904;52.246;20.898;2023-04-28T03:07:09;34.40;;;14.83;;
19519;SDS011;9904;52.246;20.898;2023-04-28T03:09:35;37.20;;;14.77;;
19519;SDS011;9904;52.246;20.898;2023-04-28T03:12:02;39.70;;;15.30;;
19519;SDS011;9904;52.246;20.898;2023-04-28T03:14:29;43.13;;;14.90;;
19519;SDS011;9904;52.246;20.898;2023-04-28T03:16:55;41.03;;;15.20;;
19519;SDS011;9904;52.246;20.898;2023-04-28T03:19:23;41.57;;;16.07;;
19519;SDS011;9904;52.246;20.898;2023-04-28T03:21:49;43.97;;;15.10;;
19519;SDS011;9904;52.246;20.898;2023-04-28T03:24:16;36.03;;;14.40;;
19519;SDS011;9904;52.246;20.898;2023-04-28T03:26:43;39.50;;;15.33;;
19519;SDS011;9904;52.246;20.898;2023-04-28T03:29:09;37.33;;;14.73;;
19519;SDS011;9904;52.246;20.898;2023-04-28T03:31:36;33.90;;;13.67;;
19519;SDS011;9904;52.246;20.898;2023-04-28T03:34:03;32.07;;;13.97;;
19519;SDS011;9904;52.246;20.898;2023-04-28T03:36:29;32.30;;;14.53;;
19519;SDS011;9904;52.246;20.898;2023-04-28T03:38:57;33.27;;;13.60;;
19519;SDS011;9904;52.246;20.898;2023-04-28T03:41:23;38.50;;;14.87;;
19519;SDS011;9904;52.246;20.898;2023-04-28T03:43:50;30.23;;;14.03;;
19519;SDS011;9904;52.246;20.898;2023-04-28T03:46:18;37.83;;;13.90;;
19519;SDS011;9904;52.246;20.898;2023-04-28T03:48:45;33.03;;;13.87;;
19519;SDS011;9904;52.246;20.898;2023-04-28T03:51:11;31.80;;;14.67;;
19519;SDS011;9904;52.246;20.898;2023-04-28T03:53:38;42.30;;;15.43;;
19519;SDS011;9904;52.246;20.898;2023-04-28T03:56:05;32.77;;;14.83;;
19519;SDS011;9904;52.246;20.898;2023-04-28T03:58:32;33.93;;;14.50;;
19519;SDS011;9904;52.246;20.898;2023-04-28T04:00:58;48.70;;;15.33;;
19519;SDS011;9904;52.246;20.898;2023-04-28T04:03:26;33.33;;;14.13;;
19519;SDS011;9904;52.246;20.898;2023-04-28T04:05:53;37.43;;;14.97;;
19519;SDS011;9904;52.246;20.898;2023-04-28T04:08:20;36.03;;;14.53;;
19519;SDS011;9904;52.246;20.898;2023-04-28T04:10:47;35.80;;;15.23;;
19519;SDS011;9904;52.246;20.898;2023-04-28T04:13:14;33.97;;;13.67;;
19519;SDS011;9904;52.246;20.898;2023-04-28T04:15:40;38.50;;;15.27;;
19519;SDS011;9904;52.246;20.898;2023-04-28T04:18:07;45.97;;;15.83;;
19519;SDS011;9904;52.246;20.898;2023-04-28T04:20:33;50.77;;;15.60;;
19519;SDS011;9904;52.246;20.898;2023-04-28T04:23:00;38.67;;;15.73;;
19519;SDS011;9904;52.246;20.898;2023-04-28T04:25:27;37.17;;;14.47;;
19519;SDS011;9904;52.246;20.898;2023-04-28T04:27:53;35.20;;;14.33;;
19519;SDS011;9904;52.246;20.898;2023-04-28T04:30:20;41.57;;;14.63;;
19519;SDS011;9904;52.246;20.898;2023-04-28T04:32:47;38.53;;;15.70;;
19519;SDS011;9904;52.246;20.898;2023-04-28T04:35:14;35.77;;;14.43;;
19519;SDS011;9904;52.246;20.898;2023-04-28T04:37:40;44.10;;;16.13;;
19519;SDS011;9904;52.246;20.898;2023-04-28T04:40:07;43.53;;;15.03;;
19519;SDS011;9904;52.246;20.898;2023-04-28T04:42:34;33.87;;;15.00;;
19519;SDS011;9904;52.246;20.898;2023-04-28T04:45:01;33.10;;;14.13;;
19519;SDS011;9904;52.246;20.898;2023-04-28T04:47:28;34.07;;;13.60;;
19519;SDS011;9904;52.246;20.898;2023-04-28T04:49:54;42.57;;;15.27;;
19519;SDS011;9904;52.246;20.898;2023-04-28T04:52:21;42.87;;;14.60;;
19519;SDS011;9904;52.246;20.898;2023-04-28T04:54:48;39.00;;;15.33;;
19519;SDS011;9904;52.246;20.898;2023-04-28T04:57:15;41.33;;;14.47;;
19519;SDS011;9904;52.246;20.898;2023-04-28T04:59:42;31.63;;;14.23;;
19519;SDS011;9904;52.246;20.898;2023-04-28T05:02:09;40.43;;;15.23;;
19519;SDS011;9904;52.246;20.898;2023-04-28T05:04:35;36.20;;;14.70;;
19519;SDS011;9904;52.246;20.898;2023-04-28T05:07:02;29.87;;;13.47;;
19519;SDS011;9904;52.246;20.898;2023-04-28T05:09:29;33.17;;;14.30;;
19519;SDS011;9904;52.246;20.898;2023-04-28T05:11:57;34.57;;;14.97;;
19519;SDS011;9904;52.246;20.898;2023-04-28T05:14:23;42.23;;;14.53;;
19519;SDS011;9904;52.246;20.898;2023-04-28T05:16:50;33.27;;;14.57;;
19519;SDS011;9904;52.246;20.898;2023-04-28T05:19:16;35.57;;;14.90;;
19519;SDS011;9904;52.246;20.898;2023-04-28T05:21:43;34.80;;;15.87;;
19519;SDS011;9904;52.246;20.898;2023-04-28T05:24:10;33.57;;;14.90;;
19519;SDS011;9904;52.246;20.898;2023-04-28T05:26:36;34.03;;;14.73;;
19519;SDS011;9904;52.246;20.898;2023-04-28T05:29:03;40.97;;;15.07;;
19519;SDS011;9904;52.246;20.898;2023-04-28T05:31:29;31.03;;;14.57;;
19519;SDS011;9904;52.246;20.898;2023-04-28T05:33:56;29.87;;;14.10;;
19519;SDS011;9904;52.246;20.898;2023-04-28T05:36:23;30.53;;;13.67;;
19519;SDS011;9904;52.246;20.898;2023-04-28T05:38:50;32.33;;;14.67;;
19519;SDS011;9904;52.246;20.898;2023-04-28T05:41:17;40.90;;;15.10;;
19519;SDS011;9904;52.246;20.898;2023-04-28T05:43:43;35.00;;;15.73;;
19519;SDS011;9904;52.246;20.898;2023-04-28T05:46:11;35.23;;;13.80;;
19519;SDS011;9904;52.246;20.898;2023-04-28T05:48:54;27.17;;;13.23;;
19519;SDS011;9904;52.246;20.898;2023-04-28T05:51:21;32.10;;;13.13;;
19519;SDS011;9904;52.246;20.898;2023-04-28T05:53:48;33.27;;;13.80;;
19519;SDS011;9904;52.246;20.898;2023-04-28T05:56:14;32.33;;;12.73;;
19519;SDS011;9904;52.246;20.898;2023-04-28T05:58:42;32.03;;;12.90;;
19519;SDS011;9904;52.246;20.898;2023-04-28T06:01:12;34.13;;;13.67;;
19519;SDS011;9904;52.246;20.898;2023-04-28T06:03:39;32.10;;;12.70;;
19519;SDS011;9904;52.246;20.898;2023-04-28T06:06:08;33.40;;;12.77;;
19519;SDS011;9904;52.246;20.898;2023-04-28T06:08:39;29.47;;;12.60;;
19519;SDS011;9904;52.246;20.898;2023-04-28T06:11:06;25.77;;;11.87;;
19519;SDS011;9904;52.246;20.898;2023-04-28T06:13:32;23.20;;;10.97;;
19519;SDS011;9904;52.246;20.898;2023-04-28T06:15:59;29.23;;;11.63;;
19519;SDS011;9904;52.246;20.898;2023-04-28T06:18:25;27.47;;;11.20;;
19519;SDS011;9904;52.246;20.898;2023-04-28T06:20:52;25.57;;;10.83;;
19519;SDS011;9904;52.246;20.898;2023-04-28T06:23:19;25.70;;;10.83;;
19519;SDS011;9904;52.246;20.898;2023-04-28T06:25:45;27.27;;;10.60;;
19519;SDS011;9904;52.246;20.898;2023-04-28T06:28:12;18.90;;;9.77;;
19519;SDS011;9904;52.246;20.898;2023-04-28T06:30:40;26.57;;;11.03;;
19519;SDS011;9904;52.246;20.898;2023-04-28T06:33:06;22.77;;;9.93;;
19519;SDS011;9904;52.246;20.898;2023-04-28T06:35:34;28.67;;;11.00;;
19519;SDS011;9904;52.246;20.898;2023-04-28T06:38:05;20.27;;;9.30;;
19519;SDS011;9904;52.246;20.898;2023-04-28T06:40:31;22.43;;;9.30;;
19519;SDS011;9904;52.246;20.898;2023-04-28T06:42:58;17.07;;;8.93;;
19519;SDS011;9904;52.246;20.898;2023-04-28T06:45:24;20.97;;;10.20;;
19519;SDS011;9904;52.246;20.898;2023-04-28T06:47:52;18.73;;;9.33;;
19519;SDS011;9904;52.246;20.898;2023-04-28T06:50:21;22.90;;;8.67;;
19519;SDS011;9904;52.246;20.898;2023-04-28T06:52:48;18.10;;;8.67;;
19519;SDS011;9904;52.246;20.898;2023-04-28T06:55:15;17.87;;;9.00;;
19519;SDS011;9904;52.246;20.898;2023-04-28T06:57:42;16.60;;;8.70;;
19519;SDS011;9904;52.246;20.898;2023-04-28T07:00:09;23.47;;;9.23;;
19519;SDS011;9904;52.246;20.898;2023-04-28T07:02:36;16.97;;;8.07;;
19519;SDS011;9904;52.246;20.898;2023-04-28T07:05:03;14.47;;;7.90;;
19519;SDS011;9904;52.246;20.898;2023-04-28T07:07:30;15.73;;;7.90;;
19519;SDS011;9904;52.246;20.898;2023-04-28T07:09:57;15.80;;;8.13;;
19519;SDS011;9904;52.246;20.898;2023-04-28T07:12:24;17.07;;;7.53;;
19519;SDS011;9904;52.246;20.898;2023-04-28T07:14:50;16.57;;;7.73;;
19519;SDS011;9904;52.246;20.898;2023-04-28T07:17:17;15.50;;;6.67;;
19519;SDS011;9904;52.246;20.898;2023-04-28T07:19:44;15.23;;;6.03;;
19519;SDS011;9904;52.246;20.898;2023-04-28T07:22:11;16.63;;;6.90;;
19519;SDS011;9904;52.246;20.898;2023-04-28T07:24:37;13.20;;;6.37;;
19519;SDS011;9904;52.246;20.898;2023-04-28T07:27:04;12.40;;;6.00;;
19519;SDS011;9904;52.246;20.898;2023-04-28T07:29:31;15.13;;;6.53;;
19519;SDS011;9904;52.246;20.898;2023-04-28T07:32:00;11.50;;;4.30;;
19519;SDS011;9904;52.246;20.898;2023-04-28T07:34:31;10.53;;;3.17;;
19519;SDS011;9904;52.246;20.898;2023-04-28T07:36:58;15.27;;;4.67;;
19519;SDS011;9904;52.246;20.898;2023-04-28T07:39:25;15.85;;;5.03;;
19519;SDS011;9904;52.246;20.898;2023-04-28T07:41:52;9.90;;;3.87;;
19519;SDS011;9904;52.246;20.898;2023-04-28T07:44:19;7.73;;;3.50;;
19519;SDS011;9904;52.246;20.898;2023-04-28T07:46:47;9.87;;;4.67;;
19519;SDS011;9904;52.246;20.898;2023-04-28T07:49:16;17.70;;;5.37;;
19519;SDS011;9904;52.246;20.898;2023-04-28T07:51:43;12.40;;;5.40;;
19519;SDS011;9904;52.246;20.898;2023-04-28T07:54:10;9.47;;;4.50;;
19519;SDS011;9904;52.246;20.898;2023-04-28T07:56:37;12.47;;;4.87;;
19519;SDS011;9904;52.246;20.898;2023-04-28T07:59:04;10.30;;;4.60;;
19519;SDS011;9904;52.246;20.898;2023-04-28T08:01:30;13.40;;;3.97;;
19519;SDS011;9904;52.246;20.898;2023-04-28T08:03:57;14.43;;;4.77;;
19519;SDS011;9904;52.246;20.898;2023-04-28T08:06:24;15.27;;;4.80;;
19519;SDS011;9904;52.246;20.898;2023-04-28T08:08:51;12.93;;;4.93;;
19519;SDS011;9904;52.246;20.898;2023-04-28T08:11:18;10.57;;;3.40;;
19519;SDS011;9904;52.246;20.898;2023-04-28T08:13:44;6.60;;;2.87;;
19519;SDS011;9904;52.246;20.898;2023-04-28T08:16:12;8.30;;;3.17;;
19519;SDS011;9904;52.246;20.898;2023-04-28T08:18:39;8.17;;;1.77;;
19519;SDS011;9904;52.246;20.898;2023-04-28T08:21:06;6.43;;;1.80;;
19519;SDS011;9904;52.246;20.898;2023-04-28T08:23:32;6.70;;;2.73;;
19519;SDS011;9904;52.246;20.898;2023-04-28T08:25:59;5.47;;;2.50;;
19519;SDS011;9904;52.246;20.898;2023-04-28T08:28:26;6.93;;;2.30;;
19519;SDS011;9904;52.246;20.898;2023-04-28T08:30:53;6.23;;;2.27;;
19519;SDS011;9904;52.246;20.898;2023-04-28T08:33:20;6.73;;;3.00;;
19519;SDS011;9904;52.246;20.898;2023-04-28T08:35:49;7.50;;;2.90;;
19519;SDS011;9904;52.246;20.898;2023-04-28T08:38:16;11.23;;;2.90;;
19519;SDS011;9904;52.246;20.898;2023-04-28T08:40:43;8.20;;;2.67;;
19519;SDS011;9904;52.246;20.898;2023-04-28T08:43:10;4.40;;;2.30;;
19519;SDS011;9904;52.246;20.898;2023-04-28T08:45:41;5.37;;;2.23;;
19519;SDS011;9904;52.246;20.898;2023-04-28T08:48:13;7.50;;;2.30;;
19519;SDS011;9904;52.246;20.898;2023-04-28T08:50:46;6.40;;;2.30;;
19519;SDS011;9904;52.246;20.898;2023-04-28T08:53:16;5.83;;;1.80;;
19519;SDS011;9904;52.246;20.898;2023-04-28T08:55:54;5.27;;;2.03;;
19519;SDS011;9904;52.246;20.898;2023-04-28T08:58:25;3.80;;;1.30;;
19519;SDS011;9904;52.246;20.898;2023-04-28T09:00:52;4.33;;;1.93;;
19519;SDS011;9904;52.246;20.898;2023-04-28T09:03:19;5.43;;;2.20;;
19519;SDS011;9904;52.246;20.898;2023-04-28T09:05:46;5.80;;;2.03;;
19519;SDS011;9904;52.246;20.898;2023-04-28T09:08:14;4.20;;;1.90;;
19519;SDS011;9904;52.246;20.898;2023-04-28T09:10:41;8.30;;;1.90;;
19519;SDS011;9904;52.246;20.898;2023-04-28T09:13:08;5.57;;;1.90;;
19519;SDS011;9904;52.246;20.898;2023-04-28T09:15:35;5.83;;;2.17;;
19519;SDS011;9904;52.246;20.898;2023-04-28T09:18:03;6.67;;;2.63;;
19519;SDS011;9904;52.246;20.898;2023-04-28T09:20:32;4.33;;;2.33;;
19519;SDS011;9904;52.246;20.898;2023-04-28T09:23:15;12.50;;;2.50;;
19519;SDS011;9904;52.246;20.898;2023-04-28T09:28:29;7.30;;;2.40;;
19519;SDS011;9904;52.246;20.898;2023-04-28T09:30:56;6.30;;;2.27;;
19519;SDS011;9904;52.246;20.898;2023-04-28T09:33:23;7.63;;;2.33;;
19519;SDS011;9904;52.246;20.898;2023-04-28T09:35:50;6.77;;;2.20;;
19519;SDS011;9904;52.246;20.898;2023-04-28T09:38:18;7.40;;;2.60;;
19519;SDS011;9904;52.246;20.898;2023-04-28T09:43:23;8.20;;;2.17;;
19519;SDS011;9904;52.246;20.898;2023-04-28T09:45:52;6.60;;;3.00;;
19519;SDS011;9904;52.246;20.898;2023-04-28T09:48:25;9.37;;;3.10;;
19519;SDS011;9904;52.246;20.898;2023-04-28T09:50:57;8.33;;;2.70;;
19519;SDS011;9904;52.246;20.898;2023-04-28T09:53:33;8.80;;;3.17;;
19519;SDS011;9904;52.246;20.898;2023-04-28T09:56:01;6.53;;;2.77;;
19519;SDS011;9904;52.246;20.898;2023-04-28T09:58:30;9.87;;;3.13;;
19519;SDS011;9904;52.246;20.898;2023-04-28T10:00:58;6.80;;;3.03;;
19519;SDS011;9904;52.246;20.898;2023-04-28T10:03:27;9.33;;;3.10;;
19519;SDS011;9904;52.246;20.898;2023-04-28T10:05:56;7.30;;;2.70;;
19519;SDS011;9904;52.246;20.898;2023-04-28T10:08:24;4.47;;;2.43;;
19519;SDS011;9904;52.246;20.898;2023-04-28T10:10:52;7.60;;;2.93;;
19519;SDS011;9904;52.246;20.898;2023-04-28T10:13:20;9.57;;;2.70;;
19519;SDS011;9904;52.246;20.898;2023-04-28T10:15:48;14.63;;;3.20;;
19519;SDS011;9904;52.246;20.898;2023-04-28T10:18:16;14.97;;;3.00;;
19519;SDS011;9904;52.246;20.898;2023-04-28T10:20:47;7.90;;;3.10;;
19519;SDS011;9904;52.246;20.898;2023-04-28T10:26:03;10.63;;;2.73;;
19519;SDS011;9904;52.246;20.898;2023-04-28T10:28:35;6.82;;;2.75;;
19519;SDS011;9904;52.246;20.898;2023-04-28T10:31:11;7.77;;;2.60;;
19519;SDS011;9904;52.246;20.898;2023-04-28T10:33:39;6.93;;;2.80;;
19519;SDS011;9904;52.246;20.898;2023-04-28T10:36:06;15.00;;;3.17;;
19519;SDS011;9904;52.246;20.898;2023-04-28T10:38:33;9.83;;;2.53;;
19519;SDS011;9904;52.246;20.898;2023-04-28T10:41:01;6.73;;;2.53;;
19519;SDS011;9904;52.246;20.898;2023-04-28T10:56:15;8.93;;;2.50;;
19519;SDS011;9904;52.246;20.898;2023-04-28T10:58:45;5.80;;;2.23;;
19519;SDS011;9904;52.246;20.898;2023-04-28T11:06:26;5.17;;;2.50;;
19519;SDS011;9904;52.246;20.898;2023-04-28T11:08:55;6.63;;;2.20;;
19519;SDS011;9904;52.246;20.898;2023-04-28T11:11:28;9.47;;;2.50;;
19519;SDS011;9904;52.246;20.898;2023-04-28T11:14:30;5.33;;;2.57;;
19519;SDS011;9904;52.246;20.898;2023-04-28T11:16:50;7.93;;;2.60;;
19519;SDS011;9904;52.246;20.898;2023-04-28T11:19:22;5.27;;;2.60;;
19519;SDS011;9904;52.246;20.898;2023-04-28T11:21:50;10.07;;;2.73;;
19519;SDS011;9904;52.246;20.898;2023-04-28T11:24:18;4.63;;;2.50;;
19519;SDS011;9904;52.246;20.898;2023-04-28T11:26:45;6.40;;;2.70;;
19519;SDS011;9904;52.246;20.898;2023-04-28T11:29:12;10.17;;;3.20;;
19519;SDS011;9904;52.246;20.898;2023-04-28T11:31:40;8.03;;;2.80;;
19519;SDS011;9904;52.246;20.898;2023-04-28T11:34:19;7.00;;;2.90;;
19519;SDS011;9904;52.246;20.898;2023-04-28T11:36:49;8.20;;;3.43;;
19519;SDS011;9904;52.246;20.898;2023-04-28T11:39:24;5.77;;;2.43;;
19519;SDS011;9904;52.246;20.898;2023-04-28T11:41:54;6.17;;;2.37;;
19519;SDS011;9904;52.246;20.898;2023-04-28T11:44:21;6.17;;;2.70;;
19519;SDS011;9904;52.246;20.898;2023-04-28T11:46:50;6.03;;;2.50;;
19519;SDS011;9904;52.246;20.898;2023-04-28T11:49:40;6.67;;;2.60;;
19519;SDS011;9904;52.246;20.898;2023-04-28T11:52:08;10.80;;;2.50;;
19519;SDS011;9904;52.246;20.898;2023-04-28T11:54:35;8.33;;;2.50;;
19519;SDS011;9904;52.246;20.898;2023-04-28T11:57:02;9.40;;;2.33;;
19519;SDS011;9904;52.246;20.898;2023-04-28T11:59:31;5.53;;;2.47;;
19519;SDS011;9904;52.246;20.898;2023-04-28T12:02:00;6.90;;;2.70;;
19519;SDS011;9904;52.246;20.898;2023-04-28T12:04:32;9.90;;;3.87;;
19519;SDS011;9904;52.246;20.898;2023-04-28T12:09:31;6.80;;;2.90;;
19519;SDS011;9904;52.246;20.898;2023-04-28T12:12:04;9.00;;;3.00;;
19519;SDS011;9904;52.246;20.898;2023-04-28T12:14:52;5.83;;;2.77;;
19519;SDS011;9904;52.246;20.898;2023-04-28T12:17:38;5.97;;;2.73;;
19519;SDS011;9904;52.246;20.898;2023-04-28T12:20:07;7.83;;;3.10;;
19519;SDS011;9904;52.246;20.898;2023-04-28T12:22:47;8.17;;;3.43;;
19519;SDS011;9904;52.246;20.898;2023-04-28T12:25:16;5.87;;;2.30;;
19519;SDS011;9904;52.246;20.898;2023-04-28T12:30:30;8.73;;;3.37;;
19519;SDS011;9904;52.246;20.898;2023-04-28T12:32:58;9.23;;;3.10;;
19519;SDS011;9904;52.246;20.898;2023-04-28T12:35:25;8.10;;;3.00;;
19519;SDS011;9904;52.246;20.898;2023-04-28T12:37:53;11.17;;;3.00;;
19519;SDS011;9904;52.246;20.898;2023-04-28T12:40:21;6.40;;;2.80;;
19519;SDS011;9904;52.246;20.898;2023-04-28T12:42:48;6.27;;;2.77;;
19519;SDS011;9904;52.246;20.898;2023-04-28T12:45:15;6.73;;;3.03;;
19519;SDS011;9904;52.246;20.898;2023-04-28T12:47:42;9.73;;;3.20;;
19519;SDS011;9904;52.246;20.898;2023-04-28T12:50:09;7.33;;;3.10;;
19519;SDS011;9904;52.246;20.898;2023-04-28T12:52:36;9.73;;;3.10;;
19519;SDS011;9904;52.246;20.898;2023-04-28T12:55:03;8.43;;;3.23;;
19519;SDS011;9904;52.246;20.898;2023-04-28T12:57:30;8.17;;;3.33;;
19519;SDS011;9904;52.246;20.898;2023-04-28T12:59:56;6.90;;;4.00;;
19519;SDS011;9904;52.246;20.898;2023-04-28T13:02:23;11.27;;;3.83;;
19519;SDS011;9904;52.246;20.898;2023-04-28T13:04:50;6.33;;;3.40;;
19519;SDS011;9904;52.246;20.898;2023-04-28T13:07:18;10.57;;;3.80;;
19519;SDS011;9904;52.246;20.898;2023-04-28T13:09:44;8.10;;;3.97;;
19519;SDS011;9904;52.246;20.898;2023-04-28T13:12:13;6.37;;;3.50;;
19519;SDS011;9904;52.246;20.898;2023-04-28T13:14:40;10.07;;;3.67;;
19519;SDS011;9904;52.246;20.898;2023-04-28T13:17:07;13.20;;;4.23;;
19519;SDS011;9904;52.246;20.898;2023-04-28T13:19:35;10.50;;;3.90;;
19519;SDS011;9904;52.246;20.898;2023-04-28T13:22:02;6.80;;;3.33;;
19519;SDS011;9904;52.246;20.898;2023-04-28T13:24:30;10.40;;;3.93;;
19519;SDS011;9904;52.246;20.898;2023-04-28T13:26:58;6.33;;;3.60;;
19519;SDS011;9904;52.246;20.898;2023-04-28T13:29:25;8.17;;;3.77;;
19519;SDS011;9904;52.246;20.898;2023-04-28T13:31:52;12.20;;;4.00;;
19519;SDS011;9904;52.246;20.898;2023-04-28T13:34:18;10.50;;;4.13;;
19519;SDS011;9904;52.246;20.898;2023-04-28T13:36:45;8.63;;;3.83;;
19519;SDS011;9904;52.246;20.898;2023-04-28T13:39:15;9.27;;;3.57;;
19519;SDS011;9904;52.246;20.898;2023-04-28T13:41:45;10.70;;;4.10;;
19519;SDS011;9904;52.246;20.898;2023-04-28T13:44:12;9.03;;;3.40;;
19519;SDS011;9904;52.246;20.898;2023-04-28T13:46:38;9.43;;;3.67;;
19519;SDS011;9904;52.246;20.898;2023-04-28T13:49:05;7.17;;;3.43;;
19519;SDS011;9904;52.246;20.898;2023-04-28T13:51:32;13.53;;;4.53;;
19519;SDS011;9904;52.246;20.898;2023-04-28T13:53:59;12.37;;;4.43;;
19519;SDS011;9904;52.246;20.898;2023-04-28T13:56:26;11.63;;;3.90;;
19519;SDS011;9904;52.246;20.898;2023-04-28T13:58:53;10.07;;;3.80;;
19519;SDS011;9904;52.246;20.898;2023-04-28T14:01:19;11.70;;;3.97;;
19519;SDS011;9904;52.246;20.898;2023-04-28T14:03:46;8.00;;;3.63;;
19519;SDS011;9904;52.246;20.898;2023-04-28T14:06:13;8.83;;;4.17;;
19519;SDS011;9904;52.246;20.898;2023-04-28T14:08:40;13.67;;;4.20;;
19519;SDS011;9904;52.246;20.898;2023-04-28T14:11:06;8.40;;;3.73;;
19519;SDS011;9904;52.246;20.898;2023-04-28T14:13:34;11.90;;;4.37;;
19519;SDS011;9904;52.246;20.898;2023-04-28T14:16:01;14.10;;;4.40;;
19519;SDS011;9904;52.246;20.898;2023-04-28T14:18:28;9.23;;;4.00;;
19519;SDS011;9904;52.246;20.898;2023-04-28T14:20:55;10.10;;;4.43;;
19519;SDS011;9904;52.246;20.898;2023-04-28T14:23:21;11.30;;;4.37;;
19519;SDS011;9904;52.246;20.898;2023-04-28T14:25:48;8.60;;;4.27;;
19519;SDS011;9904;52.246;20.898;2023-04-28T14:28:15;10.03;;;4.33;;
19519;SDS011;9904;52.246;20.898;2023-04-28T14:30:42;8.90;;;3.93;;
19519;SDS011;9904;52.246;20.898;2023-04-28T14:33:09;10.33;;;4.40;;
19519;SDS011;9904;52.246;20.898;2023-04-28T14:35:36;10.97;;;4.07;;
19519;SDS011;9904;52.246;20.898;2023-04-28T14:38:02;10.00;;;4.23;;
19519;SDS011;9904;52.246;20.898;2023-04-28T14:40:29;8.63;;;4.20;;
19519;SDS011;9904;52.246;20.898;2023-04-28T14:42:56;6.97;;;3.97;;
19519;SDS011;9904;52.246;20.898;2023-04-28T14:45:22;7.37;;;3.80;;
19519;SDS011;9904;52.246;20.898;2023-04-28T14:47:49;12.87;;;4.63;;
19519;SDS011;9904;52.246;20.898;2023-04-28T14:50:16;7.83;;;4.17;;
19519;SDS011;9904;52.246;20.898;2023-04-28T14:52:43;11.87;;;4.57;;
19519;SDS011;9904;52.246;20.898;2023-04-28T14:55:10;12.97;;;4.60;;
19519;SDS011;9904;52.246;20.898;2023-04-28T14:57:36;8.43;;;4.33;;
19519;SDS011;9904;52.246;20.898;2023-04-28T15:00:03;9.60;;;4.67;;
19519;SDS011;9904;52.246;20.898;2023-04-28T15:02:32;11.67;;;4.97;;
19519;SDS011;9904;52.246;20.898;2023-04-28T15:04:59;11.23;;;4.57;;
19519;SDS011;9904;52.246;20.898;2023-04-28T15:07:26;11.73;;;4.83;;